Time;durP1;ratioP1;P1;durP2;ratioP2;P2;SDS_P1;SDS_P2;PMS_P1;PMS_P2;Temp;Humidity;BMP_temperature;BMP_pressure;BME280_temperature;BME280_humidity;BME280_pressure;Samples;Min_cycle;Max_cycle;Signal;HPM_P1;HPM_P2
2021/06/01 00:01:52;;;;;;;5.83;5.43;;;12.80;78.30;;;;;;4863445;29;20987;-79
2021/06/01 00:04:19;;;;;;;3.70;3.50;;;12.80;79.20;;;;;;4863667;29;20472;-80
2021/06/01 00:06:46;;;;;;;5.10;4.20;;;12.80;79.70;;;;;;4863281;29;20459;-80
2021/06/01 00:09:16;;;;;;;8.10;7.30;;;12.70;80.00;;;;;;4863232;29;20465;-80
2021/06/01 00:11:43;;;;;;;4.63;4.03;;;12.70;80.60;;;;;;4863399;29;20512;-80
2021/06/01 00:14:11;;;;;;;4.13;3.83;;;12.60;81.00;;;;;;4863794;29;20477;-80
2021/06/01 00:16:39;;;;;;;4.50;4.20;;;12.60;81.90;;;;;;4864450;29;20497;-80
2021/06/01 00:19:07;;;;;;;4.53;4.13;;;12.60;82.40;;;;;;4864311;29;20917;-80
2021/06/01 00:21:34;;;;;;;5.87;5.37;;;12.50;83.10;;;;;;4864167;29;21010;-80
2021/06/01 00:24:00;;;;;;;6.07;4.87;;;12.50;83.90;;;;;;4864413;29;20466;-80
2021/06/01 00:26:26;;;;;;;6.07;4.80;;;12.40;84.80;;;;;;4867806;29;20512;-80
2021/06/01 00:28:53;;;;;;;5.10;4.60;;;12.40;85.80;;;;;;4868010;29;20460;-81
2021/06/01 00:31:20;;;;;;;6.83;4.80;;;12.40;86.70;;;;;;4868299;29;20472;-77
2021/06/01 00:33:47;;;;;;;4.60;4.30;;;12.30;87.30;;;;;;4868025;29;20460;-80
2021/06/01 00:36:13;;;;;;;5.83;5.33;;;12.30;87.70;;;;;;4867492;29;20500;-81
2021/06/01 00:38:39;;;;;;;5.83;5.33;;;12.30;88.50;;;;;;4867728;29;20543;-81
2021/06/01 00:41:05;;;;;;;5.60;5.20;;;12.20;88.90;;;;;;4867920;29;21128;-80
2021/06/01 00:43:32;;;;;;;5.40;4.90;;;12.20;89.00;;;;;;4868079;29;20458;-78
2021/06/01 00:45:58;;;;;;;5.60;5.20;;;12.20;89.50;;;;;;4867538;29;20460;-80
2021/06/01 00:48:26;;;;;;;5.67;5.20;;;12.10;90.20;;;;;;4866987;29;20468;-81
2021/06/01 00:50:52;;;;;;;5.27;4.87;;;12.10;90.50;;;;;;4865923;29;20517;-81
2021/06/01 00:53:19;;;;;;;6.33;5.73;;;12.10;90.60;;;;;;4865205;29;20457;-80
2021/06/01 00:55:46;;;;;;;7.90;7.30;;;12.00;90.90;;;;;;4865251;29;20463;-81
2021/06/01 00:58:12;;;;;;;6.90;5.57;;;12.00;91.20;;;;;;4865565;29;20488;-81
2021/06/01 01:00:56;;;;;;;5.77;5.27;;;12.00;91.40;;;;;;4864959;29;20492;-79
2021/06/01 01:03:22;;;;;;;6.20;5.60;;;11.90;91.50;;;;;;4864691;29;20509;-80
2021/06/01 01:05:51;;;;;;;5.77;5.37;;;11.80;92.00;;;;;;4864909;29;20457;-81
2021/06/01 01:08:44;;;;;;;5.70;5.07;;;11.80;92.20;;;;;;4865373;29;20499;-80
2021/06/01 01:11:19;;;;;;;5.67;5.23;;;11.80;92.50;;;;;;4864870;29;20480;-80
2021/06/01 01:13:49;;;;;;;5.87;5.37;;;11.70;92.80;;;;;;4864765;29;20475;-80
2021/06/01 01:16:17;;;;;;;7.00;5.90;;;11.70;93.10;;;;;;4864544;29;20500;-80
2021/06/01 01:18:47;;;;;;;5.70;5.20;;;11.70;93.30;;;;;;4911589;23;20487;-81
2021/06/01 01:21:19;;;;;;;5.67;5.17;;;11.60;93.40;;;;;;4898463;29;20480;-81
2021/06/01 01:23:53;;;;;;;4.83;4.40;;;11.60;93.50;;;;;;4899291;29;20466;-81
2021/06/01 01:26:27;;;;;;;4.60;4.20;;;11.50;93.80;;;;;;4898883;29;20515;-81
2021/06/01 01:29:02;;;;;;;5.83;5.23;;;11.50;94.20;;;;;;4897029;29;20483;-81
2021/06/01 01:31:37;;;;;;;6.20;5.70;;;11.50;94.40;;;;;;4897330;29;20459;-80
2021/06/01 01:34:07;;;;;;;8.87;7.10;;;11.40;94.50;;;;;;4897061;29;20466;-81
2021/06/01 01:36:34;;;;;;;7.03;6.40;;;11.30;94.60;;;;;;4896898;29;20491;-81
2021/06/01 01:39:01;;;;;;;6.73;6.03;;;11.30;94.90;;;;;;4896881;29;20535;-81
2021/06/01 01:41:28;;;;;;;7.00;6.00;;;11.30;95.00;;;;;;4897367;29;20468;-81
2021/06/01 01:43:57;;;;;;;7.40;6.30;;;11.30;95.20;;;;;;4897563;29;20470;-81
2021/06/01 01:46:32;;;;;;;6.67;6.07;;;11.30;95.30;;;;;;4897127;29;20535;-81
2021/06/01 01:49:00;;;;;;;6.17;5.67;;;11.20;95.50;;;;;;4897540;29;20483;-81
2021/06/01 01:51:32;;;;;;;5.80;5.30;;;11.20;95.70;;;;;;4897375;29;20471;-81
2021/06/01 01:54:01;;;;;;;5.40;5.00;;;11.20;95.90;;;;;;4897852;29;20452;-82
2021/06/01 01:56:31;;;;;;;6.00;5.40;;;11.20;96.00;;;;;;4897152;29;20495;-81
2021/06/01 01:58:58;;;;;;;5.70;5.30;;;11.20;96.20;;;;;;4897227;29;20498;-81
2021/06/01 02:01:25;;;;;;;5.20;4.70;;;11.10;96.40;;;;;;4896431;29;20455;-82
2021/06/01 02:03:52;;;;;;;6.10;5.60;;;11.10;96.50;;;;;;4897332;29;20463;-81
2021/06/01 02:06:18;;;;;;;5.90;5.40;;;11.10;96.70;;;;;;4896132;29;20866;-81
2021/06/01 02:08:46;;;;;;;7.03;6.23;;;11.00;96.70;;;;;;4896434;29;20487;-81
2021/06/01 02:11:12;;;;;;;5.67;5.13;;;11.00;96.80;;;;;;4895816;29;20452;-81
2021/06/01 02:13:43;;;;;;;6.13;5.63;;;11.00;96.80;;;;;;4895864;29;20494;-81
2021/06/01 02:16:10;;;;;;;5.70;5.30;;;10.90;97.00;;;;;;4896531;29;20502;-80
2021/06/01 02:18:36;;;;;;;5.23;4.83;;;10.90;97.10;;;;;;4895858;29;20519;-82
2021/06/01 02:21:05;;;;;;;6.60;5.90;;;10.90;97.10;;;;;;4896965;29;20493;-81
2021/06/01 02:23:48;;;;;;;5.67;5.27;;;10.80;97.30;;;;;;4895736;29;20546;-81
2021/06/01 02:26:26;;;;;;;6.27;5.77;;;10.80;97.40;;;;;;4896410;29;20447;-81
2021/06/01 02:28:56;;;;;;;6.57;5.87;;;10.80;97.50;;;;;;4895905;29;20478;-81
2021/06/01 02:31:29;;;;;;;6.03;5.47;;;10.80;97.70;;;;;;4895935;29;20808;-81
2021/06/01 02:33:57;;;;;;;6.53;6.03;;;10.80;97.60;;;;;;4897151;29;20470;-81
2021/06/01 02:36:25;;;;;;;6.40;5.90;;;10.80;97.70;;;;;;4895871;29;20547;-81
2021/06/01 02:38:52;;;;;;;5.97;5.03;;;10.80;97.80;;;;;;4896040;29;20487;-81
2021/06/01 02:41:20;;;;;;;6.07;5.47;;;10.70;97.90;;;;;;4895996;29;20463;-81
2021/06/01 02:43:46;;;;;;;5.23;4.80;;;10.70;98.00;;;;;;4897173;29;20439;-80
2021/06/01 02:46:16;;;;;;;5.80;5.40;;;10.70;98.00;;;;;;4903321;29;20447;-80
2021/06/01 02:48:43;;;;;;;6.90;6.20;;;10.70;98.30;;;;;;4900948;29;20503;-81
2021/06/01 02:51:16;;;;;;;6.03;5.53;;;10.60;98.20;;;;;;4897309;29;20469;-81
2021/06/01 02:53:45;;;;;;;5.83;5.40;;;10.60;98.30;;;;;;4895305;29;20466;-82
2021/06/01 02:56:13;;;;;;;5.10;4.70;;;10.60;98.50;;;;;;4895940;29;20527;-81
2021/06/01 02:58:42;;;;;;;5.57;5.20;;;10.50;98.70;;;;;;4895850;29;20479;-81
2021/06/01 03:01:12;;;;;;;6.27;5.67;;;10.50;98.80;;;;;;4896151;29;20487;-82
2021/06/01 03:03:43;;;;;;;6.30;5.70;;;10.50;98.90;;;;;;4895926;29;20880;-81
2021/06/01 03:06:10;;;;;;;5.50;4.83;;;10.40;98.90;;;;;;4895736;29;20470;-82
2021/06/01 03:08:36;;;;;;;5.83;5.20;;;10.40;99.00;;;;;;4895254;29;20504;-81
2021/06/01 03:11:04;;;;;;;6.67;6.17;;;10.40;99.10;;;;;;4894424;29;20752;-81
2021/06/01 03:13:30;;;;;;;5.70;5.30;;;10.40;99.20;;;;;;4894636;29;20519;-81
2021/06/01 03:15:58;;;;;;;6.77;5.77;;;10.40;99.30;;;;;;4895741;29;20459;-81
2021/06/01 03:18:25;;;;;;;6.17;5.57;;;10.40;99.30;;;;;;4895414;29;20488;-81
2021/06/01 03:20:52;;;;;;;6.30;5.70;;;10.30;99.30;;;;;;4895687;29;20464;-81
2021/06/01 03:23:19;;;;;;;5.53;5.03;;;10.30;99.30;;;;;;4894323;29;20553;-81
2021/06/01 03:25:45;;;;;;;5.80;5.40;;;10.30;99.40;;;;;;4895655;29;20881;-81
2021/06/01 03:28:12;;;;;;;8.70;5.30;;;10.30;99.50;;;;;;4894940;29;20507;-81
2021/06/01 03:30:39;;;;;;;5.97;5.47;;;10.30;99.60;;;;;;4895512;29;20460;-81
2021/06/01 03:33:06;;;;;;;5.73;5.27;;;10.30;99.70;;;;;;4894888;29;20972;-81
2021/06/01 03:35:33;;;;;;;5.87;5.30;;;10.20;99.80;;;;;;4894830;29;20466;-82
2021/06/01 03:37:59;;;;;;;6.10;5.50;;;10.20;99.90;;;;;;4894664;29;20503;-81
2021/06/01 03:40:25;;;;;;;6.00;5.40;;;10.20;99.90;;;;;;4895087;29;20531;-81
2021/06/01 03:42:52;;;;;;;5.77;5.37;;;10.20;99.90;;;;;;4894077;29;20469;-81
2021/06/01 03:45:20;;;;;;;6.20;5.70;;;10.10;99.90;;;;;;4894834;29;20494;-81
2021/06/01 03:47:47;;;;;;;6.00;5.40;;;10.10;99.90;;;;;;4895095;29;20589;-81
2021/06/01 03:50:14;;;;;;;6.87;6.17;;;10.10;99.90;;;;;;4894432;29;20455;-81
2021/06/01 03:52:41;;;;;;;7.43;6.73;;;10.10;99.90;;;;;;4894274;29;20463;-81
2021/06/01 03:55:09;;;;;;;6.40;5.77;;;10.10;99.90;;;;;;4895438;29;20474;-81
2021/06/01 03:57:35;;;;;;;7.17;6.53;;;10.10;99.90;;;;;;4895209;29;20514;-81
2021/06/01 04:00:01;;;;;;;6.10;5.30;;;10.10;99.90;;;;;;4893661;29;20462;-81
2021/06/01 04:02:27;;;;;;;6.33;5.73;;;10.10;99.90;;;;;;4893795;29;20491;-81
2021/06/01 04:04:54;;;;;;;6.73;6.00;;;10.10;99.90;;;;;;4894589;29;20483;-80
2021/06/01 04:07:21;;;;;;;5.80;5.30;;;10.10;99.90;;;;;;4894396;29;20483;-81
2021/06/01 04:09:47;;;;;;;7.20;5.80;;;10.10;99.90;;;;;;4894940;29;20444;-81
2021/06/01 04:12:14;;;;;;;6.73;6.13;;;10.10;99.90;;;;;;4894440;29;20465;-81
2021/06/01 04:14:40;;;;;;;5.87;5.27;;;10.10;99.90;;;;;;4894630;29;20465;-81
2021/06/01 04:17:06;;;;;;;5.83;5.43;;;10.10;99.90;;;;;;4894535;29;20491;-81
2021/06/01 04:19:33;;;;;;;6.87;6.27;;;10.10;99.90;;;;;;4895044;29;20454;-81
2021/06/01 04:21:59;;;;;;;7.97;6.63;;;10.10;99.90;;;;;;4894406;29;20463;-81
2021/06/01 04:24:28;;;;;;;6.10;5.20;;;10.20;99.90;;;;;;4894187;29;20459;-81
2021/06/01 04:26:55;;;;;;;7.07;6.20;;;10.20;99.90;;;;;;4895155;29;20455;-81
2021/06/01 04:29:21;;;;;;;5.80;5.30;;;10.20;99.90;;;;;;4894795;29;20558;-81
2021/06/01 04:31:47;;;;;;;5.93;5.43;;;10.20;99.90;;;;;;4894723;29;20565;-81
2021/06/01 04:34:14;;;;;;;6.13;5.63;;;10.30;99.90;;;;;;4894001;29;20829;-81
2021/06/01 04:36:40;;;;;;;5.80;5.30;;;10.30;99.90;;;;;;4897432;29;20500;-81
2021/06/01 04:39:06;;;;;;;6.73;6.10;;;10.30;99.90;;;;;;4896084;29;20479;-81
2021/06/01 04:41:34;;;;;;;6.80;6.20;;;10.40;99.90;;;;;;4894533;29;20455;-81
2021/06/01 04:44:00;;;;;;;7.60;6.80;;;10.40;99.90;;;;;;4895677;29;20468;-81
2021/06/01 04:46:27;;;;;;;7.10;6.50;;;10.50;99.90;;;;;;4896144;29;20450;-81
2021/06/01 04:48:53;;;;;;;6.80;6.10;;;10.50;99.90;;;;;;4894964;29;20544;-81
2021/06/01 04:51:20;;;;;;;6.30;5.70;;;10.60;99.90;;;;;;4894362;29;20459;-81
2021/06/01 04:53:47;;;;;;;6.00;5.57;;;10.60;99.90;;;;;;4895129;29;20541;-82
2021/06/01 04:56:13;;;;;;;6.50;5.90;;;10.60;99.90;;;;;;4893944;29;20547;-81
2021/06/01 04:58:41;;;;;;;6.30;5.70;;;10.70;99.90;;;;;;4893937;29;20506;-81
2021/06/01 05:01:07;;;;;;;6.60;6.10;;;10.70;99.90;;;;;;4893932;29;20451;-81
2021/06/01 05:03:39;;;;;;;4.97;4.47;;;10.80;99.80;;;;;;4894155;29;20470;-81
2021/06/01 05:06:05;;;;;;;6.77;5.10;;;10.90;99.50;;;;;;4894055;29;20484;-81
2021/06/01 05:08:32;;;;;;;6.47;5.00;;;10.90;99.00;;;;;;4894266;29;20491;-81
2021/06/01 05:10:58;;;;;;;4.63;4.33;;;11.00;98.80;;;;;;4895927;29;20773;-81
2021/06/01 05:13:25;;;;;;;5.20;4.80;;;11.10;98.00;;;;;;4897476;29;20459;-81
2021/06/01 05:15:52;;;;;;;5.10;4.70;;;11.20;98.10;;;;;;4897614;29;20459;-81
2021/06/01 05:18:19;;;;;;;6.07;5.47;;;11.30;97.70;;;;;;4896782;29;20507;-82
2021/06/01 05:20:46;;;;;;;4.93;4.50;;;11.40;97.50;;;;;;4897454;29;20464;-81
2021/06/01 05:23:13;;;;;;;5.77;5.30;;;11.50;97.10;;;;;;4897288;29;20950;-81
2021/06/01 05:25:40;;;;;;;5.50;5.00;;;11.60;96.90;;;;;;4897585;29;20526;-82
2021/06/01 05:28:06;;;;;;;4.63;4.23;;;11.70;97.00;;;;;;4897593;29;20476;-81
2021/06/01 05:30:36;;;;;;;5.23;4.83;;;11.80;96.90;;;;;;4897287;29;20451;-82
2021/06/01 05:33:13;;;;;;;5.73;4.73;;;11.90;96.70;;;;;;4897319;29;20456;-81
2021/06/01 05:35:43;;;;;;;4.90;4.50;;;12.00;96.30;;;;;;4897328;29;21078;-82
2021/06/01 05:38:10;;;;;;;4.77;4.03;;;12.10;96.10;;;;;;4896895;29;20507;-81
2021/06/01 05:40:36;;;;;;;5.27;4.80;;;12.20;95.70;;;;;;4897505;29;20454;-81
2021/06/01 05:43:03;;;;;;;5.27;4.77;;;12.30;95.90;;;;;;4896575;29;20467;-81
2021/06/01 05:45:29;;;;;;;4.30;3.90;;;12.40;95.70;;;;;;4896247;29;20456;-82
2021/06/01 05:47:56;;;;;;;4.67;4.27;;;12.40;95.60;;;;;;4896851;29;20479;-81
2021/06/01 05:50:23;;;;;;;4.20;3.90;;;12.50;95.40;;;;;;4897481;29;20460;-82
2021/06/01 05:52:50;;;;;;;5.10;4.70;;;12.60;95.30;;;;;;4896729;29;20464;-82
2021/06/01 05:55:16;;;;;;;4.40;4.10;;;12.70;95.00;;;;;;4895298;29;20483;-81
2021/06/01 05:57:42;;;;;;;5.17;4.70;;;12.80;94.90;;;;;;4895575;29;20496;-82
2021/06/01 06:00:10;;;;;;;4.53;4.23;;;12.90;95.10;;;;;;4896838;29;20493;-82
2021/06/01 06:02:37;;;;;;;4.80;4.40;;;13.00;94.70;;;;;;4894658;29;20459;-81
2021/06/01 06:05:04;;;;;;;5.00;4.70;;;13.10;94.60;;;;;;4895524;29;20472;-82
2021/06/01 06:07:31;;;;;;;4.70;3.97;;;13.20;94.50;;;;;;4896499;29;20468;-81
2021/06/01 06:09:58;;;;;;;4.40;4.00;;;13.30;94.40;;;;;;4896957;29;20460;-81
2021/06/01 06:12:24;;;;;;;4.67;4.10;;;13.40;93.90;;;;;;4896649;29;20469;-81
2021/06/01 06:14:51;;;;;;;4.83;4.50;;;13.50;93.80;;;;;;4896465;29;20489;-82
2021/06/01 06:17:33;;;;;;;6.77;4.23;;;13.50;93.90;;;;;;4900849;29;21028;-81
2021/06/01 06:20:01;;;;;;;5.03;4.63;;;13.60;93.30;;;;;;4904638;29;20460;-80
2021/06/01 06:22:27;;;;;;;4.97;4.53;;;13.70;92.90;;;;;;4898044;29;20463;-82
2021/06/01 06:24:55;;;;;;;4.20;3.90;;;13.80;92.80;;;;;;4900566;29;20455;-82
2021/06/01 06:27:21;;;;;;;6.53;3.80;;;13.90;92.60;;;;;;4900042;29;20563;-82
2021/06/01 06:29:47;;;;;;;4.13;3.70;;;14.00;92.30;;;;;;4899977;29;20465;-82
2021/06/01 06:32:13;;;;;;;4.57;4.17;;;14.10;92.00;;;;;;4899481;29;20522;-82
2021/06/01 06:34:40;;;;;;;4.20;3.80;;;14.20;92.20;;;;;;4899814;29;20473;-83
2021/06/01 06:37:06;;;;;;;3.67;3.47;;;14.20;91.90;;;;;;4899416;29;20566;-82
2021/06/01 06:39:34;;;;;;;4.10;3.80;;;14.40;91.70;;;;;;4899236;29;20484;-82
2021/06/01 06:42:01;;;;;;;4.77;4.37;;;14.40;91.60;;;;;;4899396;29;20453;-82
2021/06/01 06:44:29;;;;;;;3.90;3.60;;;14.60;91.70;;;;;;4898983;29;20453;-83
2021/06/01 06:47:06;;;;;;;4.57;4.17;;;14.70;91.00;;;;;;4899492;29;20929;-82
2021/06/01 06:49:34;;;;;;;4.93;4.53;;;14.80;91.30;;;;;;4909824;29;20538;-82
2021/06/01 06:52:00;;;;;;;4.77;4.13;;;14.90;90.90;;;;;;4906303;29;20442;-82
2021/06/01 06:54:26;;;;;;;3.93;3.53;;;15.00;90.90;;;;;;4905999;29;20445;-82
2021/06/01 06:56:52;;;;;;;4.17;3.73;;;15.10;90.90;;;;;;4906240;29;20470;-82
2021/06/01 06:59:20;;;;;;;4.40;4.03;;;15.20;91.20;;;;;;4901075;29;20484;-82
2021/06/01 07:01:46;;;;;;;3.93;3.63;;;15.30;91.10;;;;;;4898655;29;20510;-82
2021/06/01 07:04:13;;;;;;;4.13;3.80;;;15.30;90.60;;;;;;4899457;29;20454;-82
2021/06/01 07:06:39;;;;;;;5.00;3.80;;;15.50;90.30;;;;;;4898882;29;20498;-83
2021/06/01 07:09:07;;;;;;;4.57;4.27;;;15.50;90.20;;;;;;4896375;29;20511;-81
2021/06/01 07:11:33;;;;;;;4.13;3.60;;;15.60;89.90;;;;;;4896039;29;20461;-82
2021/06/01 07:14:07;;;;;;;3.60;3.40;;;15.70;89.50;;;;;;4908747;29;20460;-81
2021/06/01 07:16:34;;;;;;;4.10;3.70;;;15.80;88.90;;;;;;4916112;29;20518;-81
2021/06/01 07:19:02;;;;;;;3.20;3.00;;;16.00;89.10;;;;;;4906118;23;20531;-79
2021/06/01 07:21:29;;;;;;;6.87;3.67;;;16.10;87.90;;;;;;4883197;29;20463;-79
2021/06/01 07:23:55;;;;;;;4.40;3.87;;;16.20;85.70;;;;;;4882259;29;20457;-80
2021/06/01 07:26:21;;;;;;;4.77;4.37;;;16.30;84.40;;;;;;4882780;29;20465;-80
2021/06/01 11:03:15;;;;;;;2.90;2.60;;;24.70;45.70;;;;;;4874387;29;20537;-86
2021/06/01 11:06:02;;;;;;;3.00;2.80;;;24.90;48.50;;;;;;4873740;29;20873;-84
2021/06/01 11:08:34;;;;;;;3.00;2.80;;;25.30;46.40;;;;;;4873788;29;20992;-83
2021/06/01 11:11:28;;;;;;;2.80;2.60;;;25.70;46.30;;;;;;4876071;29;20464;-85
2021/06/01 11:21:13;;;;;;;2.23;1.87;;;27.50;42.70;;;;;;4794919;30;20451;-84
2021/06/01 12:43:16;;;;;;;3.60;3.17;;;34.30;29.00;;;;;;4875641;29;20451;-83
2021/06/01 12:45:57;;;;;;;3.30;3.10;;;34.20;29.80;;;;;;4889178;29;20490;-84
2021/06/01 13:08:52;;;;;;;2.70;2.60;;;37.70;26.60;;;;;;5521597;23;20528;-83
2021/06/01 13:20:28;;;;;;;3.70;3.50;;;38.20;26.10;;;;;;4957028;23;20479;-84
2021/06/01 13:23:12;;;;;;;3.37;3.17;;;38.50;26.10;;;;;;4860688;29;20548;-82
2021/06/01 13:39:28;;;;;;;3.60;3.30;;;38.10;25.20;;;;;;4857968;29;20447;-82
2021/06/01 13:47:26;;;;;;;3.70;3.40;;;37.10;25.90;;;;;;4846761;29;20481;-84
2021/06/01 13:49:56;;;;;;;3.33;3.10;;;37.50;26.00;;;;;;4849813;29;20529;-84
2021/06/01 13:52:49;;;;;;;2.93;2.73;;;37.80;26.50;;;;;;4843012;29;20480;-83
2021/06/01 13:55:20;;;;;;;3.20;2.90;;;38.30;25.50;;;;;;4843325;29;20619;-84
2021/06/01 14:00:37;;;;;;;2.50;2.40;;;38.90;25.10;;;;;;4843366;29;20474;-82
2021/06/01 14:36:39;;;;;;;3.63;3.43;;;41.10;22.50;;;;;;4842976;29;20430;-84
2021/06/01 14:39:42;;;;;;;3.17;3.00;;;41.50;22.30;;;;;;4845789;29;20469;-81
2021/06/01 15:05:06;;;;;;;3.60;3.30;;;43.10;20.90;;;;;;4840729;29;20494;-83
2021/06/01 15:08:00;;;;;;;3.40;3.10;;;43.60;21.30;;;;;;4841743;29;20900;-83
2021/06/01 15:32:32;;;;;;;3.10;2.90;;;44.70;19.90;;;;;;4834423;29;20519;-83
2021/06/01 15:49:18;;;;;;;2.80;2.70;;;45.50;19.20;;;;;;4840927;29;20507;-83
2021/06/01 15:52:16;;;;;;;2.40;2.30;;;45.60;19.10;;;;;;4841622;29;20570;-83
2021/06/01 16:11:52;;;;;;;3.07;2.77;;;46.20;18.60;;;;;;4841046;29;20454;-83
2021/06/01 16:14:23;;;;;;;2.87;2.77;;;45.90;18.40;;;;;;4841469;29;20451;-83
2021/06/01 16:42:30;;;;;;;3.40;3.10;;;45.20;18.00;;;;;;4842236;29;20477;-83
2021/06/01 17:04:21;;;;;;;2.47;2.27;;;44.30;18.40;;;;;;4884087;29;20506;-83
2021/06/01 17:07:00;;;;;;;3.27;2.57;;;44.20;18.30;;;;;;4880351;29;20843;-85
2021/06/01 17:12:15;;;;;;;3.33;3.03;;;44.30;18.30;;;;;;4880434;29;20574;-84
2021/06/01 17:14:42;;;;;;;2.57;2.47;;;44.20;18.50;;;;;;4881823;29;20905;-82
2021/06/01 17:17:14;;;;;;;2.97;2.77;;;44.00;18.30;;;;;;4882215;29;20456;-83
2021/06/01 17:19:57;;;;;;;2.90;2.73;;;43.70;18.50;;;;;;4883757;29;20448;-83
2021/06/01 17:22:39;;;;;;;3.07;2.87;;;43.10;18.50;;;;;;4882732;29;20487;-83
2021/06/01 17:30:50;;;;;;;3.43;3.17;;;40.20;20.00;;;;;;4881991;29;20830;-83
2021/06/01 17:36:05;;;;;;;2.67;2.50;;;37.90;21.30;;;;;;4882932;29;20432;-83
2021/06/01 17:38:31;;;;;;;4.77;3.40;;;36.80;22.00;;;;;;4882396;29;20496;-83
2021/06/01 17:41:01;;;;;;;4.33;3.20;;;36.10;22.80;;;;;;4883467;29;20869;-82
2021/06/01 17:43:30;;;;;;;3.87;3.50;;;35.40;23.20;;;;;;4883806;29;20559;-82
2021/06/01 17:45:58;;;;;;;4.50;4.10;;;35.10;23.70;;;;;;4884422;29;20456;-83
2021/06/01 17:48:37;;;;;;;4.93;2.83;;;35.00;23.90;;;;;;4884027;29;20460;-83
2021/06/01 17:51:07;;;;;;;3.57;3.30;;;35.20;24.00;;;;;;4880814;29;20483;-83
2021/06/01 17:53:41;;;;;;;3.37;3.07;;;35.40;23.70;;;;;;4880121;29;20516;-84
2021/06/01 17:56:08;;;;;;;3.43;3.23;;;35.60;23.70;;;;;;4880367;29;20459;-83
2021/06/01 17:58:34;;;;;;;4.13;3.93;;;35.80;23.90;;;;;;4880183;29;20492;-84
2021/06/01 18:01:00;;;;;;;4.20;3.90;;;36.10;23.70;;;;;;4879762;29;21036;-84
2021/06/01 18:03:30;;;;;;;3.80;3.50;;;36.30;23.50;;;;;;4879943;29;20467;-83
2021/06/01 18:05:58;;;;;;;4.70;3.57;;;36.40;23.40;;;;;;4880188;29;20468;-83
2021/06/01 18:08:33;;;;;;;4.43;4.13;;;36.50;23.50;;;;;;4879937;29;20457;-83
2021/06/01 18:14:07;;;;;;;4.37;3.97;;;36.60;23.50;;;;;;4880285;29;20525;-83
2021/06/01 18:42:28;;;;;;;3.03;2.73;;;33.60;25.20;;;;;;4885597;29;20478;-84
2021/06/01 19:02:01;;;;;;;3.53;3.23;;;28.80;29.30;;;;;;4887101;29;20477;-84
2021/06/01 19:24:32;;;;;;;3.60;3.40;;;24.40;36.20;;;;;;4792731;30;20496;-82
2021/06/01 19:27:33;;;;;;;2.50;2.30;;;23.90;36.60;;;;;;4792683;29;20462;-81
2021/06/01 19:49:59;;;;;;;3.10;2.90;;;21.40;40.70;;;;;;4830472;29;20471;-81
2021/06/01 19:52:27;;;;;;;4.10;3.80;;;21.20;41.50;;;;;;4829868;29;20485;-83
2021/06/01 19:54:55;;;;;;;3.87;3.47;;;21.00;42.10;;;;;;4830299;29;20462;-83
2021/06/01 19:57:22;;;;;;;3.87;3.57;;;20.90;41.80;;;;;;4829123;29;20451;-81
2021/06/01 19:59:52;;;;;;;3.83;3.53;;;20.70;42.40;;;;;;4828135;29;20970;-84
2021/06/01 20:02:21;;;;;;;4.00;3.70;;;20.60;42.70;;;;;;4827873;29;20503;-83
2021/06/01 20:04:51;;;;;;;5.47;4.20;;;20.50;43.20;;;;;;4827991;29;20465;-81
2021/06/01 20:07:17;;;;;;;4.47;3.53;;;20.40;43.50;;;;;;4828254;29;20455;-82
2021/06/01 20:09:45;;;;;;;3.37;3.17;;;20.30;43.90;;;;;;4828627;29;20540;-83
2021/06/01 20:12:14;;;;;;;3.30;3.07;;;20.10;44.10;;;;;;4832052;29;20486;-83
2021/06/01 20:14:40;;;;;;;3.67;3.33;;;20.00;44.50;;;;;;4840560;29;20465;-83
2021/06/01 20:17:13;;;;;;;3.50;3.20;;;20.00;45.00;;;;;;4847073;29;20464;-82
2021/06/01 20:19:40;;;;;;;3.60;3.40;;;19.80;45.00;;;;;;4842232;29;20787;-83
2021/06/01 20:22:07;;;;;;;3.47;3.17;;;19.70;45.40;;;;;;4846207;29;20484;-83
2021/06/01 20:24:37;;;;;;;3.90;3.70;;;19.60;45.60;;;;;;4849488;29;20458;-83
2021/06/01 20:27:06;;;;;;;3.67;3.37;;;19.60;45.90;;;;;;4849689;29;20497;-83
2021/06/01 20:29:34;;;;;;;3.77;3.47;;;19.40;46.00;;;;;;4849773;29;20550;-83
2021/06/01 20:34:45;;;;;;;3.47;3.27;;;19.40;46.80;;;;;;4845452;29;20438;-82
2021/06/01 20:37:11;;;;;;;4.23;3.93;;;19.20;46.80;;;;;;4849464;29;20443;-82
2021/06/01 20:39:41;;;;;;;3.30;3.10;;;19.20;47.20;;;;;;4844165;29;20800;-82
2021/06/01 20:42:08;;;;;;;5.10;3.77;;;19.10;47.70;;;;;;4850508;29;20490;-83
2021/06/01 20:44:35;;;;;;;4.50;4.20;;;19.00;47.60;;;;;;4852271;29;20493;-83
2021/06/01 20:47:02;;;;;;;4.07;3.87;;;19.00;47.80;;;;;;4853572;29;20829;-83
2021/06/01 20:49:28;;;;;;;3.73;3.43;;;18.90;48.00;;;;;;4853571;29;20494;-83
2021/06/01 20:51:56;;;;;;;5.00;4.60;;;18.80;48.40;;;;;;4853849;29;20474;-83
2021/06/01 20:54:24;;;;;;;3.40;3.10;;;18.80;49.10;;;;;;4853835;29;20467;-82
2021/06/01 20:56:52;;;;;;;5.90;3.67;;;18.70;48.70;;;;;;4852270;29;20471;-82
2021/06/01 20:59:18;;;;;;;6.63;3.70;;;18.60;48.90;;;;;;4854225;29;20469;-82
2021/06/01 21:01:48;;;;;;;4.80;4.47;;;18.60;49.10;;;;;;4854539;29;20489;-82
2021/06/01 21:04:15;;;;;;;3.67;3.37;;;18.50;49.30;;;;;;4854900;29;20465;-82
2021/06/01 21:06:41;;;;;;;4.13;3.73;;;18.40;49.50;;;;;;4854633;29;20454;-81
2021/06/01 21:09:09;;;;;;;3.90;3.60;;;18.30;50.00;;;;;;4855310;29;20497;-82
2021/06/01 21:11:36;;;;;;;4.50;4.10;;;18.30;50.10;;;;;;4853699;29;20463;-81
2021/06/01 21:14:02;;;;;;;3.63;3.33;;;18.20;50.50;;;;;;4854432;29;20461;-82
2021/06/01 21:16:29;;;;;;;3.90;3.60;;;18.10;50.60;;;;;;4853283;29;20458;-82
2021/06/01 21:18:59;;;;;;;6.50;5.53;;;18.10;50.90;;;;;;4852912;29;20457;-82
2021/06/01 21:21:25;;;;;;;3.17;2.90;;;18.10;51.20;;;;;;4852731;29;20468;-82
2021/06/01 21:23:51;;;;;;;4.80;3.67;;;18.00;51.40;;;;;;4853677;29;20834;-82
2021/06/01 21:26:19;;;;;;;4.57;4.27;;;18.00;51.60;;;;;;4852580;29;20529;-82
2021/06/01 21:28:46;;;;;;;4.40;4.10;;;17.90;52.10;;;;;;4848478;29;20496;-82
2021/06/01 21:31:13;;;;;;;4.30;3.90;;;17.80;52.30;;;;;;4850167;29;20829;-83
2021/06/01 21:33:42;;;;;;;4.60;4.20;;;17.70;52.50;;;;;;4851179;29;20484;-82
2021/06/01 21:36:12;;;;;;;4.60;4.23;;;17.70;53.00;;;;;;4849946;29;20465;-82
2021/06/01 21:38:44;;;;;;;3.63;3.40;;;17.60;53.20;;;;;;4850500;29;20456;-83
2021/06/01 21:41:11;;;;;;;3.80;3.60;;;17.50;53.30;;;;;;4847662;29;20879;-81
2021/06/01 21:43:41;;;;;;;3.40;3.20;;;17.40;53.90;;;;;;4853248;29;20477;-84
2021/06/01 21:46:08;;;;;;;3.87;3.57;;;17.40;54.30;;;;;;4853363;29;20461;-83
2021/06/01 21:48:41;;;;;;;3.53;3.30;;;17.30;54.70;;;;;;4849722;29;20493;-82
2021/06/01 21:51:08;;;;;;;6.43;4.67;;;17.20;55.00;;;;;;4850733;29;20952;-83
2021/06/01 21:53:35;;;;;;;4.60;4.20;;;17.20;55.20;;;;;;4849817;29;20469;-83
2021/06/01 21:56:02;;;;;;;5.57;5.07;;;17.10;55.30;;;;;;4850248;29;20461;-83
2021/06/01 21:58:30;;;;;;;4.20;3.83;;;17.00;55.60;;;;;;4854572;29;20453;-81
2021/06/01 22:01:00;;;;;;;5.70;4.60;;;16.90;56.00;;;;;;4866716;29;20452;-80
2021/06/01 22:03:26;;;;;;;4.10;3.80;;;16.90;56.20;;;;;;4863957;29;20868;-82
2021/06/01 22:05:53;;;;;;;5.73;4.10;;;16.80;56.50;;;;;;4857473;29;20472;-83
2021/06/01 22:08:20;;;;;;;4.20;3.83;;;16.70;56.70;;;;;;4855402;29;20496;-83
2021/06/01 22:10:49;;;;;;;5.10;4.70;;;16.60;57.50;;;;;;4855377;29;20472;-83
2021/06/01 22:13:16;;;;;;;4.30;3.90;;;16.60;58.00;;;;;;4856379;29;20491;-82
2021/06/01 22:16:00;;;;;;;5.27;4.87;;;16.50;58.30;;;;;;4855732;29;20477;-83
2021/06/01 22:18:28;;;;;;;3.97;3.60;;;16.40;58.70;;;;;;4854557;29;20453;-82
2021/06/01 22:20:57;;;;;;;5.30;4.27;;;16.40;58.70;;;;;;4854283;29;20457;-82
2021/06/01 22:23:26;;;;;;;4.67;4.17;;;16.30;59.10;;;;;;4854586;29;20938;-82
2021/06/01 22:25:55;;;;;;;5.27;4.97;;;16.20;59.70;;;;;;4854290;29;20513;-83
2021/06/01 22:28:24;;;;;;;5.40;4.87;;;16.20;60.40;;;;;;4854224;29;20871;-82
2021/06/01 22:30:51;;;;;;;5.10;4.60;;;16.10;61.00;;;;;;4855945;29;20463;-83
2021/06/01 22:33:20;;;;;;;5.40;5.00;;;16.00;61.10;;;;;;4853594;29;21093;-82
2021/06/01 22:35:47;;;;;;;5.60;5.20;;;16.00;61.70;;;;;;4853872;29;20467;-83
2021/06/01 22:38:13;;;;;;;4.57;4.23;;;15.90;62.30;;;;;;4854105;29;20455;-81
2021/06/01 22:40:41;;;;;;;4.70;4.40;;;15.80;62.70;;;;;;4853867;29;20517;-82
2021/06/01 22:43:11;;;;;;;5.03;4.53;;;15.80;63.10;;;;;;4854454;29;20479;-82
2021/06/01 22:45:38;;;;;;;5.00;4.60;;;15.70;63.40;;;;;;4854245;29;20460;-82
2021/06/01 22:48:06;;;;;;;5.00;4.57;;;15.70;63.70;;;;;;4853900;29;20495;-83
2021/06/01 22:50:33;;;;;;;4.80;4.40;;;15.60;64.20;;;;;;4855100;29;20463;-82
2021/06/01 22:52:59;;;;;;;5.37;4.67;;;15.60;64.90;;;;;;4859610;29;20494;-82
2021/06/01 22:55:25;;;;;;;5.63;5.13;;;15.50;65.30;;;;;;4865355;29;20454;-80
2021/06/01 22:58:05;;;;;;;5.33;5.00;;;15.50;66.40;;;;;;4865280;29;20464;-79
2021/06/01 23:00:33;;;;;;;6.80;5.10;;;15.40;66.90;;;;;;4865721;29;20444;-81
2021/06/01 23:03:02;;;;;;;6.07;5.50;;;15.40;68.10;;;;;;4865006;29;20484;-80
2021/06/01 23:05:29;;;;;;;7.00;6.40;;;15.30;68.40;;;;;;4865071;29;20587;-79